North Quincy, Massachusetts
Current Conditions -  °F | °C
As of 12:54 PM on Thursday 30 Oct 2014 (Local Time) from KBOS Reporting Station
Scattered Clouds Scattered Clouds  
Wind Chill: 58°   Ceiling: Unl
Heat Index: 58°   Visibility: 10mi
Dew Point: 38°   Wind: 12mph
Humidity: 47%   Direction: 320°NW
Pressure: 29.91"   Gusts: NA
Location:  42.2866°N, 71.0248°W
Report Text: KBOS 301654Z 32010KT 10SM FEW044 SCT080 SCT180 14/03 A2991 RMK AO2 SLP129 T01440033
Loading
Personal Weather Stations






























Interactive Weather Map
Tropical Storm Tracking
New forecast layout! Learn more

10-Day Weather Forecast

Advertisements
Track Severe Weather on mobile